createdAt,value
2022-08-31T00:00:09.311Z,99444.16
2022-08-31T00:02:54.644Z,99451.97
2022-08-31T00:05:21.817Z,99450.41
2022-08-31T00:07:48.433Z,99450.41
2022-08-31T00:10:15.747Z,99449.56
2022-08-31T00:12:43.795Z,99443.16
2022-08-31T00:15:13.450Z,99446.31
2022-08-31T00:17:40.844Z,99442.31
2022-08-31T00:20:09.797Z,99437.56
2022-08-31T00:22:57.053Z,99446.91
2022-08-31T00:25:24.113Z,99454.72
2022-08-31T00:27:50.914Z,99452.72
2022-08-31T00:30:17.490Z,99448.31
2022-08-31T00:32:44.045Z,99459.19
2022-08-31T00:35:10.615Z,99463.00
2022-08-31T00:37:37.358Z,99468.34
2022-08-31T00:40:04.856Z,99461.81
2022-08-31T00:42:31.503Z,99467.19
2022-08-31T00:44:58.148Z,99457.63
2022-08-31T00:47:24.738Z,99463.81
2022-08-31T00:49:52.782Z,99462.56
2022-08-31T00:52:33.316Z,99465.97
2022-08-31T00:55:17.905Z,99472.47
2022-08-31T00:57:48.196Z,99479.06
2022-08-31T01:00:18.910Z,99475.72
2022-08-31T01:02:45.795Z,99470.16
2022-08-31T01:05:13.598Z,99475.50
2022-08-31T01:07:41.869Z,99472.25
2022-08-31T01:10:09.929Z,99472.50
2022-08-31T01:12:37.465Z,99470.47
2022-08-31T01:15:25.791Z,99477.75
2022-08-31T01:17:55.328Z,99476.06
2022-08-31T01:20:49.122Z,99486.91
2022-08-31T01:23:21.444Z,99491.94
2022-08-31T01:25:49.166Z,99488.78
2022-08-31T01:28:16.023Z,99497.69
2022-08-31T01:30:44.313Z,99487.88
2022-08-31T01:33:13.273Z,99492.47
2022-08-31T01:35:44.736Z,99490.81
2022-08-31T01:38:13.292Z,99486.03
2022-08-31T01:40:49.362Z,99492.22
2022-08-31T01:43:16.551Z,99487.56
2022-08-31T01:45:43.349Z,99490.28
2022-08-31T01:48:10.431Z,99496.50
2022-08-31T01:50:37.098Z,99494.47
2022-08-31T01:53:04.005Z,99497.47
2022-08-31T01:55:30.876Z,99504.38
2022-08-31T01:57:58.898Z,99499.59
2022-08-31T02:00:25.907Z,99505.00
2022-08-31T02:02:52.502Z,99494.63
2022-08-31T02:05:19.356Z,99505.50
2022-08-31T02:07:46.074Z,99496.72
2022-08-31T02:10:12.699Z,99499.72
2022-08-31T02:12:39.350Z,99497.25
2022-08-31T02:15:06.726Z,99503.41
2022-08-31T02:17:33.281Z,99506.44
2022-08-31T02:19:59.863Z,99510.25
2022-08-31T02:22:26.467Z,99510.59
2022-08-31T02:24:53.020Z,99514.38
2022-08-31T02:27:19.647Z,99511.56
2022-08-31T02:29:46.268Z,99519.78
2022-08-31T02:32:20.330Z,99513.94
2022-08-31T02:34:48.541Z,99512.00
2022-08-31T02:37:15.535Z,99521.81
2022-08-31T02:39:44.287Z,99516.31
2022-08-31T02:42:11.064Z,99515.19
2022-08-31T02:44:37.606Z,99514.81
2022-08-31T02:47:04.357Z,99524.28
2022-08-31T02:49:33.045Z,99516.84
2022-08-31T02:51:59.677Z,99514.91
2022-08-31T02:54:26.213Z,99520.06
2022-08-31T02:56:52.969Z,99514.91
2022-08-31T02:59:20.763Z,99517.22
2022-08-31T03:01:48.306Z,99512.06
2022-08-31T03:04:15.017Z,99514.47
2022-08-31T03:06:41.870Z,99516.41
2022-08-31T03:09:08.407Z,99512.19
2022-08-31T03:11:34.984Z,99511.03
2022-08-31T03:14:01.564Z,99517.75
2022-08-31T03:16:28.137Z,99514.31
2022-08-31T03:18:54.798Z,99506.09
2022-08-31T03:21:21.402Z,99509.16
2022-08-31T03:23:48.003Z,99511.91
2022-08-31T03:26:14.680Z,99508.28
2022-08-31T03:28:41.296Z,99505.09
2022-08-31T03:31:09.899Z,99510.25
2022-08-31T03:33:36.692Z,99505.53
2022-08-31T03:36:05.779Z,99511.03
2022-08-31T03:38:32.507Z,99506.25
2022-08-31T03:41:01.313Z,99515.63
2022-08-31T03:43:27.958Z,99521.81
2022-08-31T03:45:54.999Z,99510.84
2022-08-31T03:48:21.635Z,99521.81
2022-08-31T03:50:48.202Z,99522.69
2022-08-31T03:53:15.101Z,99522.81
2022-08-31T03:55:43.941Z,99522.88
2022-08-31T03:58:12.027Z,99516.69
2022-08-31T04:00:39.597Z,99522.63
2022-08-31T04:03:06.340Z,99524.69
2022-08-31T04:05:36.650Z,99527.88
2022-08-31T04:08:03.458Z,99531.06
2022-08-31T04:10:30.055Z,99524.84
2022-08-31T04:12:56.614Z,99530.44
2022-08-31T04:15:23.321Z,99527.34
2022-08-31T04:17:49.933Z,99538.75
2022-08-31T04:20:29.489Z,99530.53
2022-08-31T04:22:56.740Z,99532.38
2022-08-31T04:25:23.295Z,99531.50
2022-08-31T04:27:50.383Z,99537.31
2022-08-31T04:30:18.143Z,99533.34
2022-08-31T04:32:44.720Z,99545.03
2022-08-31T04:35:11.433Z,99541.38
2022-08-31T04:37:40.488Z,99533.06
2022-08-31T04:40:18.935Z,99544.88
2022-08-31T04:42:48.664Z,99546.97
2022-08-31T04:45:16.973Z,99544.22
2022-08-31T04:47:43.889Z,99546.53
2022-08-31T04:50:12.617Z,99555.09
2022-08-31T04:52:39.296Z,99553.16
2022-08-31T04:55:07.297Z,99554.25
2022-08-31T04:57:35.711Z,99551.06
2022-08-31T05:00:04.579Z,99552.88
2022-08-31T05:02:33.377Z,99552.13
2022-08-31T05:05:00.566Z,99552.81
2022-08-31T05:07:27.177Z,99550.59
2022-08-31T05:09:53.914Z,99554.06
2022-08-31T05:12:20.553Z,99556.25
2022-08-31T05:14:47.922Z,99561.56
2022-08-31T05:17:16.656Z,99559.06
2022-08-31T05:19:43.942Z,99556.91
2022-08-31T05:22:11.194Z,99556.28
2022-08-31T05:24:38.936Z,99564.31
2022-08-31T05:27:06.499Z,99566.34
2022-08-31T05:29:33.239Z,99567.56
2022-08-31T05:31:59.950Z,99564.44
2022-08-31T05:34:26.952Z,99561.44
2022-08-31T05:36:55.782Z,99566.75
2022-08-31T05:39:23.953Z,99571.16
2022-08-31T05:41:50.528Z,99576.66
2022-08-31T05:44:18.093Z,99576.50
2022-08-31T05:46:45.027Z,99591.28
2022-08-31T05:49:21.279Z,99589.91
2022-08-31T05:51:47.813Z,99594.75
2022-08-31T05:54:15.986Z,99590.94
2022-08-31T05:56:42.905Z,99590.19
2022-08-31T05:59:09.864Z,99593.25
2022-08-31T06:01:39.643Z,99589.50
2022-08-31T06:04:08.343Z,99591.22
2022-08-31T06:06:35.561Z,99588.78
2022-08-31T06:09:02.130Z,99584.22
2022-08-31T06:11:31.000Z,99603.34
2022-08-31T06:14:00.430Z,99607.41
2022-08-31T06:16:28.052Z,99606.72
2022-08-31T06:18:55.806Z,99610.78
2022-08-31T06:21:36.435Z,99600.63
2022-08-31T06:24:05.475Z,99611.75
2022-08-31T06:26:34.835Z,99612.59
2022-08-31T06:29:04.571Z,99614.59
2022-08-31T06:31:36.334Z,99621.25
2022-08-31T06:34:03.213Z,99623.03
2022-08-31T06:36:31.493Z,99631.19
2022-08-31T06:38:59.826Z,99633.13
2022-08-31T06:41:35.808Z,99626.78
2022-08-31T06:44:05.906Z,99636.00
2022-08-31T06:46:34.477Z,99637.59
2022-08-31T06:49:02.016Z,99639.09
2022-08-31T06:51:29.078Z,99640.31
2022-08-31T06:53:59.357Z,99638.56
2022-08-31T06:56:35.654Z,99640.13
2022-08-31T06:59:02.969Z,99642.53
2022-08-31T07:01:35.311Z,99648.13
2022-08-31T07:04:07.568Z,99650.88
2022-08-31T07:06:41.313Z,99657.91
2022-08-31T07:09:11.047Z,99649.41
2022-08-31T07:11:44.725Z,99648.00
2022-08-31T07:14:14.535Z,99647.56
2022-08-31T07:16:42.182Z,99650.75
2022-08-31T07:19:09.325Z,99660.31
2022-08-31T07:21:41.835Z,99664.38
2022-08-31T07:24:10.277Z,99665.72
2022-08-31T07:26:47.639Z,99665.31
2022-08-31T07:29:17.432Z,99656.56
2022-08-31T07:31:46.569Z,99655.81
2022-08-31T07:34:17.271Z,99653.03
2022-08-31T07:37:02.405Z,99654.66
2022-08-31T07:39:48.983Z,99655.94
2022-08-31T07:42:22.555Z,99660.34
2022-08-31T07:44:53.452Z,99659.22
2022-08-31T07:47:22.687Z,99666.91
2022-08-31T07:49:52.769Z,99666.97
2022-08-31T07:52:23.822Z,99670.59
2022-08-31T07:54:52.574Z,99681.88
2022-08-31T07:57:20.193Z,99693.75
2022-08-31T07:59:50.061Z,99692.06
2022-08-31T08:02:17.664Z,99700.63
2022-08-31T08:04:45.125Z,99708.06
2022-08-31T08:07:12.811Z,99715.72
2022-08-31T08:09:39.436Z,99708.50
2022-08-31T08:12:06.492Z,99716.38
2022-08-31T08:14:36.150Z,99701.78
2022-08-31T08:17:05.544Z,99694.91
2022-08-31T08:19:33.796Z,99695.59
2022-08-31T08:22:04.330Z,99704.84
2022-08-31T08:24:32.675Z,99704.97
2022-08-31T08:27:00.192Z,99710.53
2022-08-31T08:29:29.920Z,99710.78
2022-08-31T08:32:00.562Z,99711.56
2022-08-31T08:34:31.693Z,99718.19
2022-08-31T08:36:59.696Z,99710.41
2022-08-31T08:39:27.181Z,99706.34
2022-08-31T08:41:57.814Z,99700.84
2022-08-31T08:44:28.601Z,99695.41
2022-08-31T08:46:58.627Z,99704.53
2022-08-31T08:49:28.935Z,99700.56
2022-08-31T08:52:07.333Z,99718.19
2022-08-31T08:54:39.494Z,99719.50
2022-08-31T08:57:15.658Z,99735.28
2022-08-31T08:59:46.999Z,99738.75
2022-08-31T09:02:24.112Z,99740.63
2022-08-31T09:05:18.720Z,99738.75
2022-08-31T09:08:00.643Z,99738.75
2022-08-31T09:10:42.523Z,99740.38
2022-08-31T09:13:21.173Z,99733.66
2022-08-31T09:16:12.064Z,99723.97
2022-08-31T09:18:50.114Z,99729.25
2022-08-31T09:21:30.979Z,99724.00
2022-08-31T09:24:02.633Z,99726.16
2022-08-31T09:26:50.897Z,99738.00
2022-08-31T09:29:24.657Z,99745.53
2022-08-31T09:32:05.952Z,99757.00
2022-08-31T09:34:37.397Z,99754.25
2022-08-31T09:37:24.261Z,99761.63
2022-08-31T09:39:53.044Z,99759.28
2022-08-31T09:42:29.192Z,99752.28
2022-08-31T09:45:00.261Z,99744.53
2022-08-31T09:47:43.216Z,99742.81
2022-08-31T09:50:12.010Z,99734.91
2022-08-31T09:52:58.811Z,99742.66
2022-08-31T09:55:28.172Z,99739.72
2022-08-31T09:57:57.697Z,99737.13
2022-08-31T10:00:45.100Z,99736.59
2022-08-31T10:03:19.180Z,99743.88
2022-08-31T10:05:47.343Z,99750.53
2022-08-31T10:08:28.228Z,99747.47
2022-08-31T10:11:01.964Z,99756.59
2022-08-31T10:13:39.198Z,99750.94
2022-08-31T10:16:26.276Z,99743.44
2022-08-31T10:18:55.627Z,99749.44
2022-08-31T10:21:35.491Z,99739.06
2022-08-31T10:24:33.716Z,99730.84
2022-08-31T10:27:08.280Z,99739.56
2022-08-31T10:29:44.144Z,99741.66
2022-08-31T10:32:23.849Z,99725.66
2022-08-31T10:35:05.022Z,99735.91
2022-08-31T10:37:38.679Z,99733.41
2022-08-31T10:40:14.062Z,99726.81
2022-08-31T10:43:01.712Z,99719.38
2022-08-31T10:45:31.570Z,99717.25
2022-08-31T10:47:59.887Z,99707.63
2022-08-31T10:50:39.243Z,99708.50
2022-08-31T10:53:32.619Z,99706.66
2022-08-31T10:56:12.807Z,99705.38
2022-08-31T10:59:00.634Z,99703.25
2022-08-31T11:01:35.408Z,99704.59
2022-08-31T11:04:02.189Z,99697.50
2022-08-31T11:06:44.156Z,99697.41
2022-08-31T11:09:22.400Z,99702.44
2022-08-31T11:12:07.348Z,99686.06
2022-08-31T11:15:01.997Z,99692.22
2022-08-31T11:17:52.988Z,99683.22
2022-08-31T11:20:41.719Z,99688.06
2022-08-31T11:23:35.874Z,99688.63
2022-08-31T11:26:16.842Z,99688.09
2022-08-31T11:28:49.570Z,99697.78
2022-08-31T11:31:24.075Z,99686.41
2022-08-31T11:34:15.515Z,99670.66
2022-08-31T11:37:01.499Z,99661.38
2022-08-31T11:39:31.093Z,99657.19
2022-08-31T11:41:59.296Z,99650.56
2022-08-31T11:44:36.937Z,99643.53
2022-08-31T11:47:05.786Z,99652.53
2022-08-31T11:49:43.828Z,99653.59
2022-08-31T11:52:29.804Z,99650.22
2022-08-31T11:54:59.024Z,99656.25
2022-08-31T11:57:36.890Z,99650.81
2022-08-31T12:00:19.232Z,99643.63
2022-08-31T12:03:01.563Z,99636.84
2022-08-31T12:05:50.982Z,99630.91
2022-08-31T12:08:18.163Z,99623.66
2022-08-31T12:11:05.451Z,99620.47
2022-08-31T12:13:49.941Z,99631.28
2022-08-31T12:16:21.828Z,99624.75
2022-08-31T12:19:07.272Z,99632.47
2022-08-31T12:22:18.466Z,99635.16
2022-08-31T12:25:11.583Z,99637.75
2022-08-31T12:27:47.379Z,99632.25
2022-08-31T12:30:22.550Z,99628.31
2022-08-31T12:32:59.075Z,99633.28
2022-08-31T12:35:28.619Z,99631.97
2022-08-31T12:38:02.818Z,99640.53
2022-08-31T12:40:35.783Z,99633.09
2022-08-31T12:43:20.107Z,99637.06
2022-08-31T12:46:02.355Z,99635.88
2022-08-31T12:48:51.687Z,99636.06
2022-08-31T12:51:28.083Z,99622.03
2022-08-31T12:54:16.310Z,99624.78
2022-08-31T12:57:07.613Z,99629.84
2022-08-31T12:59:57.492Z,99621.72
2022-08-31T13:02:27.095Z,99641.22
2022-08-31T13:04:54.267Z,99631.59
2022-08-31T13:07:23.971Z,99620.72
2022-08-31T13:10:15.625Z,99624.31
2022-08-31T13:12:54.004Z,99614.63
2022-08-31T13:15:42.597Z,99605.56
2022-08-31T13:18:16.105Z,99607.94
2022-08-31T13:20:44.229Z,99599.88
2022-08-31T13:23:15.205Z,99600.47
2022-08-31T13:25:42.195Z,99594.28
2022-08-31T13:28:13.888Z,99590.41
2022-08-31T13:30:41.609Z,99596.38
2022-08-31T13:33:27.108Z,99594.09
2022-08-31T13:36:30.290Z,99581.84
2022-08-31T13:38:57.130Z,99587.78
2022-08-31T13:41:30.071Z,99585.38
2022-08-31T13:44:01.367Z,99578.25
2022-08-31T13:46:42.433Z,99581.44
2022-08-31T13:49:26.066Z,99577.47
2022-08-31T13:51:52.914Z,99572.31
2022-08-31T13:54:33.574Z,99574.31
2022-08-31T13:57:11.071Z,99562.44
2022-08-31T13:59:39.698Z,99569.50
2022-08-31T14:02:36.737Z,99572.56
2022-08-31T14:05:07.911Z,99570.25
2022-08-31T14:07:43.479Z,99558.25
2022-08-31T14:10:17.478Z,99546.66
2022-08-31T14:12:54.690Z,99552.66
2022-08-31T14:15:37.832Z,99561.13
2022-08-31T14:18:24.394Z,99555.19
2022-08-31T14:21:20.513Z,99543.97
2022-08-31T14:24:02.033Z,99549.03
2022-08-31T14:26:34.778Z,99555.66
2022-08-31T14:29:10.915Z,99546.78
2022-08-31T14:31:52.369Z,99547.09
2022-08-31T14:34:24.395Z,99536.16
2022-08-31T14:36:53.765Z,99529.78
2022-08-31T14:39:22.250Z,99531.94
2022-08-31T14:41:49.276Z,99524.47
2022-08-31T14:44:20.094Z,99514.13
2022-08-31T14:46:46.752Z,99519.13
2022-08-31T14:49:13.555Z,99516.59
2022-08-31T14:51:41.294Z,99519.84
2022-08-31T14:54:09.043Z,99515.81
2022-08-31T14:56:46.815Z,99507.78
2022-08-31T14:59:16.280Z,99526.03
2022-08-31T15:01:46.848Z,99525.59
2022-08-31T15:04:16.131Z,99517.00
2022-08-31T15:06:47.571Z,99525.47
2022-08-31T15:09:14.088Z,99520.56
2022-08-31T15:11:43.683Z,99520.94
2022-08-31T15:14:12.530Z,99516.75
2022-08-31T15:16:44.248Z,99514.47
2022-08-31T15:19:14.877Z,99512.88
2022-08-31T15:21:51.795Z,99513.59
2022-08-31T15:24:21.885Z,99529.88
2022-08-31T15:26:48.989Z,99525.72
2022-08-31T15:29:16.555Z,99529.78
2022-08-31T15:31:49.754Z,99530.41
2022-08-31T15:34:31.291Z,99533.59
2022-08-31T15:37:03.926Z,99529.59
2022-08-31T15:39:36.624Z,99526.63
2022-08-31T15:42:09.353Z,99519.72
2022-08-31T15:44:40.989Z,99516.50
2022-08-31T15:47:27.233Z,99521.94
2022-08-31T15:49:55.698Z,99511.00
2022-08-31T15:52:27.706Z,99496.53
2022-08-31T15:54:55.058Z,99495.78
2022-08-31T15:57:23.467Z,99497.50
2022-08-31T15:59:50.627Z,99486.13
2022-08-31T16:02:20.838Z,99492.31
2022-08-31T16:04:50.561Z,99485.34
2022-08-31T16:07:17.836Z,99482.97
2022-08-31T16:09:47.455Z,99483.41
2022-08-31T16:12:16.005Z,99473.44
2022-08-31T16:14:46.230Z,99473.63
2022-08-31T16:17:17.129Z,99473.84
2022-08-31T16:19:43.733Z,99468.03
2022-08-31T16:22:10.522Z,99468.13
2022-08-31T16:24:37.753Z,99469.94
2022-08-31T16:27:07.953Z,99466.94
2022-08-31T16:29:36.299Z,99469.09
2022-08-31T16:32:04.277Z,99470.31
2022-08-31T16:34:31.557Z,99471.75
2022-08-31T16:36:59.851Z,99468.97
2022-08-31T16:39:28.316Z,99468.47
2022-08-31T16:41:55.341Z,99478.63
2022-08-31T16:44:21.891Z,99484.66
2022-08-31T16:46:49.024Z,99482.69
2022-08-31T16:49:34.095Z,99495.31
2022-08-31T16:52:05.739Z,99494.81
2022-08-31T16:54:32.928Z,99495.03
2022-08-31T16:57:00.365Z,99495.53
2022-08-31T16:59:29.132Z,99498.81
2022-08-31T17:01:55.950Z,99505.63
2022-08-31T17:04:50.604Z,99504.13
2022-08-31T17:07:14.798Z,99508.56
2022-08-31T17:09:42.538Z,99504.22
2022-08-31T17:12:13.430Z,99514.13
2022-08-31T17:14:46.999Z,99509.38
2022-08-31T17:17:16.908Z,99511.75
2022-08-31T17:19:44.913Z,99515.69
2022-08-31T17:22:21.502Z,99514.88
2022-08-31T17:24:50.586Z,99514.84
2022-08-31T17:27:21.061Z,99521.53
2022-08-31T17:29:51.797Z,99513.53
2022-08-31T17:32:23.978Z,99516.25
2022-08-31T17:34:51.967Z,99520.19
2022-08-31T17:37:26.871Z,99532.00
2022-08-31T17:39:53.974Z,99543.44
2022-08-31T17:42:22.812Z,99543.81
2022-08-31T17:44:53.071Z,99539.84
2022-08-31T17:47:21.886Z,99539.00
2022-08-31T17:49:50.806Z,99545.25
2022-08-31T17:52:20.712Z,99549.09
2022-08-31T17:54:48.491Z,99549.81
2022-08-31T17:57:16.802Z,99556.91
2022-08-31T17:59:48.910Z,99561.56
2022-08-31T18:02:35.013Z,99569.31
2022-08-31T18:05:03.333Z,99573.56
2022-08-31T18:07:36.769Z,99573.09
2022-08-31T18:10:04.770Z,99576.25
2022-08-31T18:12:31.467Z,99574.59
2022-08-31T18:14:58.260Z,99580.78
2022-08-31T18:17:26.540Z,99585.38
2022-08-31T18:19:54.678Z,99594.69
2022-08-31T18:22:21.651Z,99584.59
2022-08-31T18:24:48.339Z,99592.69
2022-08-31T18:27:15.375Z,99593.31
2022-08-31T18:29:44.236Z,99595.94
2022-08-31T18:32:11.564Z,99603.25
2022-08-31T18:34:41.014Z,99607.81
2022-08-31T18:37:09.846Z,99606.78
2022-08-31T18:39:59.618Z,99607.78
2022-08-31T18:42:46.065Z,99615.09
2022-08-31T18:45:15.437Z,99609.75
2022-08-31T18:47:42.115Z,99613.56
2022-08-31T18:50:09.104Z,99618.56
2022-08-31T18:52:39.231Z,99616.06
2022-08-31T18:55:06.547Z,99613.63
2022-08-31T18:57:33.329Z,99613.44
2022-08-31T19:00:03.259Z,99616.50
2022-08-31T19:02:30.121Z,99616.25
2022-08-31T19:04:57.420Z,99620.81
2022-08-31T19:07:24.229Z,99620.59
2022-08-31T19:09:52.140Z,99629.84
2022-08-31T19:12:19.555Z,99618.81
2022-08-31T19:14:51.907Z,99623.06
2022-08-31T19:17:19.174Z,99619.00
2022-08-31T19:19:48.677Z,99617.72
2022-08-31T19:22:16.522Z,99625.06
2022-08-31T19:24:43.071Z,99631.66
2022-08-31T19:27:10.332Z,99637.06
2022-08-31T19:29:37.816Z,99633.72
2022-08-31T19:32:05.899Z,99631.91
2022-08-31T19:34:36.317Z,99635.72
2022-08-31T19:37:05.980Z,99634.66
2022-08-31T19:39:37.280Z,99636.19
2022-08-31T19:42:07.990Z,99640.88
2022-08-31T19:47:25.521Z,99636.81
2022-08-31T19:49:52.901Z,99637.09
2022-08-31T19:52:20.167Z,99629.38
2022-08-31T19:54:48.491Z,99628.06
2022-08-31T19:57:16.372Z,99632.69
2022-08-31T19:59:42.974Z,99624.25
2022-08-31T20:02:09.730Z,99622.66
2022-08-31T20:04:36.744Z,99628.94
2022-08-31T20:07:06.396Z,99619.81
2022-08-31T20:09:34.412Z,99621.69
2022-08-31T20:12:02.074Z,99621.97
2022-08-31T20:14:28.874Z,99625.75
2022-08-31T20:16:55.452Z,99629.94
2022-08-31T20:19:25.136Z,99622.63
2022-08-31T20:21:54.272Z,99626.38
2022-08-31T20:24:25.788Z,99634.50
2022-08-31T20:26:55.566Z,99627.06
2022-08-31T20:29:23.614Z,99630.25
2022-08-31T20:31:51.897Z,99620.88
2022-08-31T20:34:22.058Z,99631.16
2022-08-31T20:36:52.380Z,99622.19
2022-08-31T20:39:20.001Z,99624.94
2022-08-31T20:41:49.938Z,99621.75
2022-08-31T20:44:36.762Z,99619.28
2022-08-31T20:47:27.620Z,99612.97
2022-08-31T20:49:57.015Z,99623.19
2022-08-31T20:52:26.147Z,99618.13
2022-08-31T20:55:01.437Z,99627.97
2022-08-31T20:57:30.307Z,99622.47
2022-08-31T20:59:56.997Z,99614.22
2022-08-31T21:02:23.666Z,99622.47
2022-08-31T21:04:50.389Z,99623.63
2022-08-31T21:07:19.060Z,99618.13
2022-08-31T21:09:46.623Z,99614.69
2022-08-31T21:12:18.062Z,99606.09
2022-08-31T21:14:46.097Z,99620.94
2022-08-31T21:17:14.295Z,99617.75
2022-08-31T21:19:41.927Z,99612.28
2022-08-31T21:22:12.089Z,99614.22
2022-08-31T21:24:41.885Z,99615.38
2022-08-31T21:27:14.686Z,99606.72
2022-08-31T21:29:43.531Z,99613.69
2022-08-31T21:32:10.663Z,99606.50
2022-08-31T21:34:38.292Z,99611.09
2022-08-31T21:37:05.700Z,99620.16
2022-08-31T21:39:32.496Z,99608.63
2022-08-31T21:41:59.710Z,99612.53
2022-08-31T21:44:27.116Z,99613.69
2022-08-31T21:46:54.009Z,99615.53
2022-08-31T21:49:20.998Z,99608.00
2022-08-31T21:51:49.780Z,99612.13
2022-08-31T21:54:19.292Z,99611.91
2022-08-31T21:56:51.525Z,99617.66
2022-08-31T21:59:20.833Z,99620.66
2022-08-31T22:01:48.674Z,99617.00
2022-08-31T22:04:16.300Z,99616.09
2022-08-31T22:06:43.200Z,99618.66
2022-08-31T22:09:12.992Z,99619.34
2022-08-31T22:11:45.630Z,99621.19
2022-08-31T22:14:16.391Z,99621.53
2022-08-31T22:16:46.589Z,99623.38
2022-08-31T22:19:15.545Z,99622.81
2022-08-31T22:21:44.618Z,99629.34
2022-08-31T22:24:15.617Z,99618.97
2022-08-31T22:26:56.092Z,99626.63
2022-08-31T22:29:27.826Z,99625.63
2022-08-31T22:31:57.843Z,99632.50
2022-08-31T22:34:25.629Z,99639.88
2022-08-31T22:36:54.194Z,99633.16
2022-08-31T22:39:23.680Z,99633.63
2022-08-31T22:41:51.421Z,99632.50
2022-08-31T22:44:20.696Z,99632.50
2022-08-31T22:46:48.247Z,99632.50
2022-08-31T22:49:15.465Z,99638.19
2022-08-31T22:51:47.546Z,99629.38
2022-08-31T22:54:15.446Z,99624.72
2022-08-31T22:56:42.488Z,99629.84
2022-08-31T22:59:15.784Z,99634.06
2022-08-31T23:01:55.019Z,99625.97
2022-08-31T23:04:25.021Z,99625.41
2022-08-31T23:06:52.906Z,99627.22
2022-08-31T23:09:21.910Z,99626.31
2022-08-31T23:11:51.739Z,99624.28
2022-08-31T23:14:21.043Z,99618.22
2022-08-31T23:16:57.203Z,99609.44
2022-08-31T23:19:28.454Z,99613.09
2022-08-31T23:21:57.604Z,99615.00
2022-08-31T23:24:31.371Z,99618.09
2022-08-31T23:27:03.855Z,99624.72
2022-08-31T23:29:34.568Z,99622.31
2022-08-31T23:32:01.345Z,99612.03
2022-08-31T23:34:27.917Z,99610.78
2022-08-31T23:36:55.748Z,99617.38
2022-08-31T23:39:23.852Z,99614.19
2022-08-31T23:41:51.151Z,99618.06
2022-08-31T23:44:21.004Z,99608.94
2022-08-31T23:46:48.315Z,99612.34
2022-08-31T23:49:18.008Z,99603.22
2022-08-31T23:51:45.254Z,99603.41
2022-08-31T23:54:12.621Z,99598.63
2022-08-31T23:56:41.763Z,99607.06
2022-08-31T23:59:11.882Z,99598.72
